Time;durP1;ratioP1;P1;durP2;ratioP2;P2;SDS_P1;SDS_P2;PMS_P1;PMS_P2;Temp;Humidity;BMP_temperature;BMP_pressure;BME280_temperature;BME280_humidity;BME280_pressure;Samples;Min_cycle;Max_cycle;Signal;HPM_P1;HPM_P2
2023/02/02 00:01:50;;;;;;;;;;;;;;;-0.58;100.00;96935.11;110177;1243;58911;-72
2023/02/02 00:04:37;;;;;;;;;;;;;;;-0.57;100.00;96936.78;110178;1241;70091;-72
2023/02/02 00:07:07;;;;;;;;;;;;;;;-0.60;100.00;96945.59;110130;1244;69120;-73
2023/02/02 00:09:37;;;;;;;;;;;;;;;-0.58;100.00;96939.91;110167;1243;69790;-72
2023/02/02 00:12:06;;;;;;;;;;;;;;;-0.57;100.00;96936.09;110137;1245;58875;-73
2023/02/02 00:14:35;;;;;;;;;;;;;;;-0.54;100.00;96933.26;110107;1244;58861;-73
2023/02/02 00:17:04;;;;;;;;;;;;;;;-0.54;100.00;96933.74;110067;1244;70616;-72
2023/02/02 00:19:33;;;;;;;;;;;;;;;-0.53;100.00;96939.71;110100;1245;70289;-73
2023/02/02 00:22:02;;;;;;;;;;;;;;;-0.55;100.00;96931.20;110124;1247;69628;-73
2023/02/02 00:24:31;;;;;;;;;;;;;;;-0.52;100.00;96923.25;110147;1244;58900;-73
2023/02/02 00:27:00;;;;;;;;;;;;;;;-0.55;100.00;96925.39;110118;1250;58904;-72
2023/02/02 00:29:30;;;;;;;;;;;;;;;-0.56;100.00;96921.66;110184;1241;70548;-73
2023/02/02 00:31:59;;;;;;;;;;;;;;;-0.60;100.00;96920.81;110109;1243;69606;-72
2023/02/02 00:34:29;;;;;;;;;;;;;;;-0.61;100.00;96919.98;110126;1244;69812;-72
2023/02/02 00:36:58;;;;;;;;;;;;;;;-0.63;100.00;96910.13;110176;1244;58888;-72
2023/02/02 00:39:29;;;;;;;;;;;;;;;-0.62;100.00;96901.52;110115;1244;58944;-73
2023/02/02 00:41:58;;;;;;;;;;;;;;;-0.59;100.00;96902.11;110137;1244;69900;-71
2023/02/02 00:47:16;;;;;;;;;;;;;;;-0.69;100.00;96895.79;110111;1245;69721;-73
2023/02/02 00:49:46;;;;;;;;;;;;;;;-0.70;100.00;96898.72;110106;1244;58909;-72
2023/02/02 00:52:15;;;;;;;;;;;;;;;-0.71;100.00;96899.30;110122;1245;58857;-72
2023/02/02 00:54:45;;;;;;;;;;;;;;;-0.71;100.00;96896.21;110166;1244;70839;-72
2023/02/02 00:57:15;;;;;;;;;;;;;;;-0.72;100.00;96902.76;110164;1241;69041;-72
2023/02/02 00:59:44;;;;;;;;;;;;;;;-0.73;100.00;96901.60;110144;1244;68568;-72
2023/02/02 01:02:14;;;;;;;;;;;;;;;-0.71;100.00;96899.81;110196;1247;58876;-72
2023/02/02 01:04:43;;;;;;;;;;;;;;;-0.70;100.00;96904.39;110203;1242;58931;-72
2023/02/02 01:07:13;;;;;;;;;;;;;;;-0.69;100.00;96902.48;110155;1241;70594;-72
2023/02/02 01:09:43;;;;;;;;;;;;;;;-0.68;100.00;96900.70;110107;1241;69642;-71
2023/02/02 01:12:13;;;;;;;;;;;;;;;-0.69;100.00;96903.34;110146;1241;68580;-71
2023/02/02 01:14:44;;;;;;;;;;;;;;;-0.69;100.00;96896.66;110127;1241;58899;-72
2023/02/02 01:17:14;;;;;;;;;;;;;;;-0.66;100.00;96895.52;110168;1243;58876;-72
2023/02/02 01:19:44;;;;;;;;;;;;;;;-0.68;100.00;96900.20;110151;1242;70723;-69
2023/02/02 01:22:14;;;;;;;;;;;;;;;-0.69;100.00;96896.15;110136;1244;70188;-71
2023/02/02 01:24:44;;;;;;;;;;;;;;;-0.73;100.00;96894.58;110161;1244;69077;-72
2023/02/02 01:27:14;;;;;;;;;;;;;;;-0.77;100.00;96892.85;110140;1243;58876;-72
2023/02/02 01:29:43;;;;;;;;;;;;;;;-0.79;100.00;96892.39;110169;1246;58875;-72
2023/02/02 01:32:14;;;;;;;;;;;;;;;-0.81;100.00;96884.23;110167;1243;70065;-72
2023/02/02 01:34:44;;;;;;;;;;;;;;;-0.78;100.00;96887.92;110107;1244;68334;-72
2023/02/02 01:37:14;;;;;;;;;;;;;;;-0.80;100.00;96888.48;110102;1241;69488;-72
2023/02/02 01:39:44;;;;;;;;;;;;;;;-0.79;100.00;96887.42;110117;1242;58859;-72
2023/02/02 01:42:18;;;;;;;;;;;;;;;-0.79;100.00;96882.11;110171;1246;58849;-71
2023/02/02 01:45:08;;;;;;;;;;;;;;;-0.76;100.00;96878.95;110141;1241;69874;-72
2023/02/02 01:47:42;;;;;;;;;;;;;;;-0.77;100.00;96879.66;110126;1243;69290;-72
2023/02/02 01:50:14;;;;;;;;;;;;;;;-0.78;100.00;96876.79;110160;1245;69293;-73
2023/02/02 01:52:46;;;;;;;;;;;;;;;-0.78;100.00;96880.05;110168;1245;58877;-72
2023/02/02 01:55:17;;;;;;;;;;;;;;;-0.78;100.00;96874.91;110168;1243;58817;-72
2023/02/02 01:58:03;;;;;;;;;;;;;;;-0.77;100.00;96870.92;110144;1244;70498;-72
2023/02/02 02:00:39;;;;;;;;;;;;;;;-0.77;100.00;96870.92;110153;1243;69225;-72
2023/02/02 02:03:11;;;;;;;;;;;;;;;-0.75;100.00;96865.72;110122;1244;69109;-72
2023/02/02 02:05:53;;;;;;;;;;;;;;;-0.72;100.00;96866.48;110209;1241;58845;-72
2023/02/02 02:08:27;;;;;;;;;;;;;;;-0.70;100.00;96864.86;110144;1241;58929;-72
2023/02/02 02:10:57;;;;;;;;;;;;;;;-0.69;100.00;96853.20;110164;1243;70571;-72
2023/02/02 02:16:18;;;;;;;;;;;;;;;-0.67;100.00;96857.73;110163;1244;69922;-72
2023/02/02 02:18:57;;;;;;;;;;;;;;;-0.67;100.00;96859.44;110165;1247;59343;-72
2023/02/02 02:27:54;;;;;;;;;;;;;;;-0.63;100.00;96855.70;110153;1244;68453;-72
2023/02/02 02:30:46;;;;;;;;;;;;;;;-0.59;100.00;96855.73;110250;1245;69189;-73
2023/02/02 02:33:24;;;;;;;;;;;;;;;-0.56;100.00;96856.29;110161;1242;58964;-73
2023/02/02 02:36:01;;;;;;;;;;;;;;;-0.57;100.00;96855.47;110090;1245;59296;-73
2023/02/02 02:38:32;;;;;;;;;;;;;;;-0.55;100.00;96851.13;109906;1246;70668;-71
2023/02/02 02:41:05;;;;;;;;;;;;;;;-0.58;100.00;96849.19;110156;1244;69460;-70
2023/02/02 02:43:41;;;;;;;;;;;;;;;-0.58;100.00;96849.54;110156;1241;69288;-70
2023/02/02 02:46:11;;;;;;;;;;;;;;;-0.58;100.00;96849.35;110147;1241;59757;-71
2023/02/02 02:48:43;;;;;;;;;;;;;;;-0.57;100.00;96849.33;110173;1243;59684;-72
2023/02/02 02:51:32;;;;;;;;;;;;;;;-0.58;100.00;96848.83;109968;1245;71342;-73
2023/02/02 02:54:04;;;;;;;;;;;;;;;-0.58;100.00;96849.70;109795;1245;69297;-73
2023/02/02 02:56:43;;;;;;;;;;;;;;;-0.61;100.00;96851.52;109849;1245;68620;-73
2023/02/02 02:59:36;;;;;;;;;;;;;;;-0.60;100.00;96852.16;110143;1244;60091;-73
2023/02/02 03:02:30;;;;;;;;;;;;;;;-0.62;100.00;96851.70;110104;1244;59676;-72
2023/02/02 03:05:22;;;;;;;;;;;;;;;-0.66;100.00;96847.94;110142;1244;71804;-71
2023/02/02 03:07:58;;;;;;;;;;;;;;;-0.64;100.00;96850.46;110169;1241;69671;-71
2023/02/02 03:10:28;;;;;;;;;;;;;;;-0.65;100.00;96855.09;110104;1243;69872;-71
2023/02/02 03:12:57;;;;;;;;;;;;;;;-0.63;100.00;96856.02;110107;1244;59718;-71
2023/02/02 03:15:28;;;;;;;;;;;;;;;-0.63;100.00;96858.80;110145;1244;59746;-71
2023/02/02 03:18:00;;;;;;;;;;;;;;;-0.68;100.00;96857.77;110131;1244;70726;-71
2023/02/02 03:20:30;;;;;;;;;;;;;;;-0.69;100.00;96856.96;110141;1242;68481;-72
2023/02/02 03:23:00;;;;;;;;;;;;;;;-0.68;100.00;96853.33;110173;1241;68506;-71
2023/02/02 03:25:30;;;;;;;;;;;;;;;-0.69;100.00;96856.27;110164;1242;59700;-74
2023/02/02 03:28:01;;;;;;;;;;;;;;;-0.70;100.00;96844.49;110319;1241;59770;-72
2023/02/02 03:30:31;;;;;;;;;;;;;;;-0.68;100.00;96843.04;110240;1241;70626;-72
2023/02/02 03:33:02;;;;;;;;;;;;;;;-0.69;100.00;96843.79;110175;1241;69096;-71
2023/02/02 03:35:32;;;;;;;;;;;;;;;-0.71;100.00;96842.46;110155;1243;69133;-72
2023/02/02 03:38:02;;;;;;;;;;;;;;;-0.71;100.00;96836.82;110128;1243;59702;-71
2023/02/02 03:40:32;;;;;;;;;;;;;;;-0.70;100.00;96832.35;110153;1242;59702;-71
2023/02/02 03:43:02;;;;;;;;;;;;;;;-0.72;100.00;96827.95;110140;1244;71210;-72
2023/02/02 03:45:34;;;;;;;;;;;;;;;-0.71;100.00;96818.88;110162;1244;69242;-71
2023/02/02 03:48:04;;;;;;;;;;;;;;;-0.74;100.00;96822.91;110086;1244;69614;-72
2023/02/02 03:50:33;;;;;;;;;;;;;;;-0.78;100.00;96819.65;110101;1245;59766;-72
2023/02/02 03:53:04;;;;;;;;;;;;;;;-0.79;100.00;96814.37;110117;1244;59690;-71
2023/02/02 03:55:34;;;;;;;;;;;;;;;-0.78;100.00;96809.04;110210;1244;71421;-72
2023/02/02 03:58:03;;;;;;;;;;;;;;;-0.80;100.00;96809.77;110147;1244;69888;-72
2023/02/02 04:00:34;;;;;;;;;;;;;;;-0.81;100.00;96804.16;110204;1241;68628;-71
2023/02/02 04:03:03;;;;;;;;;;;;;;;-0.80;100.00;96805.66;110134;1244;59678;-72
2023/02/02 04:05:34;;;;;;;;;;;;;;;-0.82;100.00;96807.29;110246;1241;59726;-72
2023/02/02 04:08:04;;;;;;;;;;;;;;;-0.82;100.00;96803.70;110205;1241;71757;-71
2023/02/02 04:10:34;;;;;;;;;;;;;;;-0.86;100.00;96798.38;110212;1241;68372;-71
2023/02/02 04:13:04;;;;;;;;;;;;;;;-0.90;100.00;96802.63;110228;1245;69819;-72
2023/02/02 04:15:34;;;;;;;;;;;;;;;-0.92;100.00;96804.61;110176;1241;59693;-71
2023/02/02 04:18:03;;;;;;;;;;;;;;;-0.95;100.00;96807.44;110145;1242;59695;-71
2023/02/02 04:20:32;;;;;;;;;;;;;;;-0.96;100.00;96809.02;110186;1244;71237;-71
2023/02/02 04:23:01;;;;;;;;;;;;;;;-0.95;100.00;96808.65;110149;1241;69122;-72
2023/02/02 04:25:30;;;;;;;;;;;;;;;-0.95;100.00;96803.17;110155;1241;68550;-71
2023/02/02 04:27:59;;;;;;;;;;;;;;;-0.95;100.00;96805.38;110163;1241;59699;-72
2023/02/02 04:30:29;;;;;;;;;;;;;;;-0.94;100.00;96804.98;110121;1244;59688;-72
2023/02/02 04:32:59;;;;;;;;;;;;;;;-0.93;100.00;96804.79;110087;1242;71961;-72
2023/02/02 04:35:29;;;;;;;;;;;;;;;-0.91;100.00;96808.00;110124;1244;68668;-72
2023/02/02 04:37:58;;;;;;;;;;;;;;;-0.90;100.00;96808.79;110119;1244;68748;-72
2023/02/02 04:40:27;;;;;;;;;;;;;;;-0.88;100.00;96808.73;110105;1245;59776;-72
2023/02/02 04:42:56;;;;;;;;;;;;;;;-0.86;100.00;96809.83;110124;1242;59631;-72
2023/02/02 04:45:25;;;;;;;;;;;;;;;-0.84;100.00;96810.98;110141;1245;71324;-71
2023/02/02 04:47:55;;;;;;;;;;;;;;;-0.82;100.00;96806.98;110014;1245;69686;-72
2023/02/02 04:50:25;;;;;;;;;;;;;;;-0.81;100.00;96807.59;110126;1244;68434;-72
2023/02/02 04:52:53;;;;;;;;;;;;;;;-0.80;100.00;96806.69;110170;1245;59745;-72
2023/02/02 04:55:23;;;;;;;;;;;;;;;-0.74;100.00;96805.13;110176;1241;59756;-72
2023/02/02 04:57:53;;;;;;;;;;;;;;;-0.71;100.00;96800.74;110148;1244;71506;-72
2023/02/02 05:00:23;;;;;;;;;;;;;;;-0.68;100.00;96801.45;110171;1243;69201;-72
2023/02/02 05:02:52;;;;;;;;;;;;;;;-0.67;100.00;96798.33;110169;1244;69225;-72
2023/02/02 05:05:21;;;;;;;;;;;;;;;-0.62;100.00;96802.77;110121;1241;59702;-70
2023/02/02 05:07:51;;;;;;;;;;;;;;;-0.57;100.00;96806.36;110250;1244;59685;-72
2023/02/02 05:10:20;;;;;;;;;;;;;;;-0.53;100.00;96808.77;110198;1241;70779;-72
2023/02/02 05:12:51;;;;;;;;;;;;;;;-0.52;100.00;96806.84;110140;1244;69304;-72
2023/02/02 05:15:20;;;;;;;;;;;;;;;-0.48;100.00;96807.57;110165;1244;68720;-72
2023/02/02 05:17:50;;;;;;;;;;;;;;;-0.44;100.00;96804.99;110120;1242;60132;-72
2023/02/02 05:20:18;;;;;;;;;;;;;;;-0.38;100.00;96800.33;110123;1244;59708;-72
2023/02/02 05:22:48;;;;;;;;;;;;;;;-0.37;100.00;96801.13;110113;1241;71847;-71
2023/02/02 05:25:18;;;;;;;;;;;;;;;-0.38;100.00;96802.02;110240;1244;69270;-73
2023/02/02 05:27:46;;;;;;;;;;;;;;;-0.39;100.00;96799.66;110231;1244;69192;-72
2023/02/02 05:30:16;;;;;;;;;;;;;;;-0.39;100.00;96788.71;110259;1241;59697;-73
2023/02/02 05:32:45;;;;;;;;;;;;;;;-0.38;100.00;96792.61;110231;1244;59640;-71
2023/02/02 05:35:14;;;;;;;;;;;;;;;-0.37;100.00;96794.97;110143;1241;70609;-69
2023/02/02 05:37:43;;;;;;;;;;;;;;;-0.38;100.00;96798.92;110167;1244;69114;-70
2023/02/02 05:40:12;;;;;;;;;;;;;;;-0.34;100.00;96801.87;110092;1244;69283;-71
2023/02/02 05:42:41;;;;;;;;;;;;;;;-0.35;100.00;96799.33;110227;1241;59697;-71
2023/02/02 05:45:11;;;;;;;;;;;;;;;-0.36;100.00;96798.86;110129;1244;59766;-71
2023/02/02 05:47:40;;;;;;;;;;;;;;;-0.36;100.00;96794.10;110163;1244;70890;-71
2023/02/02 05:50:10;;;;;;;;;;;;;;;-0.36;100.00;96798.38;110144;1243;69684;-71
2023/02/02 05:52:41;;;;;;;;;;;;;;;-0.35;100.00;96805.52;110133;1241;69594;-71
2023/02/02 05:55:10;;;;;;;;;;;;;;;-0.29;100.00;96807.15;110106;1241;59764;-70
2023/02/02 05:57:39;;;;;;;;;;;;;;;-0.30;100.00;96799.51;110173;1243;59732;-71
2023/02/02 06:00:09;;;;;;;;;;;;;;;-0.31;100.00;96784.64;110134;1243;71868;-70
2023/02/02 06:02:41;;;;;;;;;;;;;;;-0.30;100.00;96770.71;110116;1245;69402;-71
2023/02/02 06:05:10;;;;;;;;;;;;;;;-0.31;100.00;96768.35;110158;1244;69924;-70
2023/02/02 06:07:39;;;;;;;;;;;;;;;-0.30;100.00;96783.22;110135;1243;59753;-71
2023/02/02 06:10:08;;;;;;;;;;;;;;;-0.31;100.00;96788.90;110173;1241;59647;-71
2023/02/02 06:12:37;;;;;;;;;;;;;;;-0.29;100.00;96787.48;110123;1241;71384;-71
2023/02/02 06:15:07;;;;;;;;;;;;;;;-0.27;100.00;96789.62;110131;1244;69120;-71
2023/02/02 06:17:35;;;;;;;;;;;;;;;-0.27;100.00;96784.83;110109;1243;69272;-70
2023/02/02 06:20:05;;;;;;;;;;;;;;;-0.29;100.00;96780.08;110123;1241;59752;-71
2023/02/02 06:22:36;;;;;;;;;;;;;;;-0.29;100.00;96786.59;110127;1244;59709;-71
2023/02/02 06:25:06;;;;;;;;;;;;;;;-0.30;100.00;96786.80;110112;1241;71429;-71
2023/02/02 06:27:35;;;;;;;;;;;;;;;-0.31;100.00;96784.46;110141;1244;67582;-71
2023/02/02 06:30:04;;;;;;;;;;;;;;;-0.29;100.00;96781.80;110155;1241;68117;-71
2023/02/02 06:32:33;;;;;;;;;;;;;;;-0.29;100.00;96781.12;110169;1243;60025;-71
2023/02/02 06:35:02;;;;;;;;;;;;;;;-0.29;100.00;96780.94;110162;1244;59697;-71
2023/02/02 06:37:32;;;;;;;;;;;;;;;-0.25;100.00;96783.70;110136;1244;71981;-71
2023/02/02 06:40:01;;;;;;;;;;;;;;;-0.28;100.00;96779.73;110153;1244;69249;-71
2023/02/02 06:42:30;;;;;;;;;;;;;;;-0.30;100.00;96787.51;110126;1244;69256;-74
2023/02/02 06:44:59;;;;;;;;;;;;;;;-0.26;100.00;96794.88;110152;1244;59691;-71
2023/02/02 06:47:28;;;;;;;;;;;;;;;-0.26;100.00;96789.23;110127;1244;59691;-69
2023/02/02 06:49:57;;;;;;;;;;;;;;;-0.25;100.00;96789.37;110129;1244;70741;-70
2023/02/02 06:52:27;;;;;;;;;;;;;;;-0.22;100.00;96799.71;110161;1244;69225;-72
2023/02/02 06:54:55;;;;;;;;;;;;;;;-0.22;100.00;96806.05;110183;1241;68702;-72
2023/02/02 06:57:24;;;;;;;;;;;;;;;-0.19;100.00;96799.73;110165;1241;59664;-72
2023/02/02 06:59:53;;;;;;;;;;;;;;;-0.17;100.00;96779.46;110138;1244;59755;-71
2023/02/02 07:02:22;;;;;;;;;;;;;;;-0.15;100.00;96787.42;110130;1241;70855;-71
2023/02/02 07:04:50;;;;;;;;;;;;;;;-0.15;100.00;96785.55;110204;1244;69856;-71
2023/02/02 07:07:20;;;;;;;;;;;;;;;-0.12;100.00;96783.38;110161;1242;69886;-72
2023/02/02 07:09:49;;;;;;;;;;;;;;;-0.12;100.00;96785.56;110164;1244;60037;-71
2023/02/02 07:12:26;;;;;;;;;;;;;;;-0.13;100.00;96776.02;110206;1243;59710;-72
2023/02/02 07:14:55;;;;;;;;;;;;;;;-0.06;100.00;96776.09;110115;1244;71438;-71
2023/02/02 07:17:24;;;;;;;;;;;;;;;-0.01;100.00;96774.01;110119;1244;69237;-71
2023/02/02 07:19:53;;;;;;;;;;;;;;;0.01;100.00;96779.60;110248;1242;69718;-71
2023/02/02 07:22:22;;;;;;;;;;;;;;;0.04;100.00;96784.27;110288;1241;59753;-71
2023/02/02 07:24:50;;;;;;;;;;;;;;;0.13;100.00;96782.88;110093;1244;59676;-72
2023/02/02 07:27:19;;;;;;;;;;;;;;;0.22;100.00;96788.30;110078;1243;72062;-71
2023/02/02 07:29:48;;;;;;;;;;;;;;;0.24;100.00;96789.23;110146;1242;68688;-71
2023/02/02 07:32:18;;;;;;;;;;;;;;;0.32;100.00;96786.36;110110;1242;69102;-72
2023/02/02 07:34:46;;;;;;;;;;;;;;;0.35;100.00;96785.72;110106;1244;59696;-72
2023/02/02 07:37:15;;;;;;;;;;;;;;;0.43;100.00;96781.95;110153;1244;59690;-71
2023/02/02 07:39:44;;;;;;;;;;;;;;;0.47;100.00;96785.88;110114;1244;71397;-72
2023/02/02 07:42:12;;;;;;;;;;;;;;;0.60;100.00;96780.90;110220;1242;69084;-71
2023/02/02 07:44:42;;;;;;;;;;;;;;;0.66;100.00;96786.80;110097;1244;69927;-71
2023/02/02 07:47:11;;;;;;;;;;;;;;;0.68;99.97;96787.92;109757;1243;458608;-72
2023/02/02 07:49:40;;;;;;;;;;;;;;;0.77;99.98;96794.91;110144;1244;59644;-71
2023/02/02 07:52:09;;;;;;;;;;;;;;;0.81;99.58;96797.63;110109;1244;71986;-72
2023/02/02 07:54:37;;;;;;;;;;;;;;;0.76;98.66;96800.41;110103;1244;69223;-71
2023/02/02 07:57:06;;;;;;;;;;;;;;;0.68;99.05;96804.17;110248;1242;68534;-73
2023/02/02 07:59:35;;;;;;;;;;;;;;;0.63;98.53;96804.75;110202;1243;60173;-71
2023/02/02 08:02:04;;;;;;;;;;;;;;;0.70;99.09;96800.69;110291;1243;59740;-72
2023/02/02 08:04:33;;;;;;;;;;;;;;;0.67;98.98;96803.05;110131;1241;71646;-72
2023/02/02 08:07:01;;;;;;;;;;;;;;;0.63;98.93;96804.40;110224;1244;69207;-72
2023/02/02 08:09:31;;;;;;;;;;;;;;;0.61;99.23;96803.65;110093;1244;68539;-72
2023/02/02 08:12:01;;;;;;;;;;;;;;;0.56;99.46;96806.95;110146;1244;59699;-72
2023/02/02 08:14:29;;;;;;;;;;;;;;;0.55;99.85;96808.90;110095;1244;59689;-72
2023/02/02 08:16:58;;;;;;;;;;;;;;;0.52;100.00;96810.20;110220;1244;70436;-72
2023/02/02 08:19:27;;;;;;;;;;;;;;;0.52;99.97;96812.45;110149;1245;69417;-72
2023/02/02 08:21:56;;;;;;;;;;;;;;;0.49;99.98;96822.31;110184;1244;69870;-72
2023/02/02 08:24:24;;;;;;;;;;;;;;;0.47;100.00;96818.29;110250;1244;59722;-72
2023/02/02 08:26:53;;;;;;;;;;;;;;;0.47;99.82;96814.02;110165;1244;59671;-72
2023/02/02 08:29:21;;;;;;;;;;;;;;;0.45;99.52;96813.91;110140;1244;71943;-72
2023/02/02 08:31:50;;;;;;;;;;;;;;;0.43;99.53;96814.35;110164;1244;69825;-72
2023/02/02 08:34:19;;;;;;;;;;;;;;;0.41;99.66;96815.12;110091;1244;69279;-72
2023/02/02 08:36:48;;;;;;;;;;;;;;;0.37;99.94;96819.75;110126;1244;59708;-72
2023/02/02 08:39:16;;;;;;;;;;;;;;;0.43;99.73;96818.98;110137;1244;59698;-72
2023/02/02 08:41:45;;;;;;;;;;;;;;;0.42;99.71;96823.14;110149;1244;70507;-72
2023/02/02 08:44:15;;;;;;;;;;;;;;;0.37;99.90;96819.91;110106;1244;69186;-72
2023/02/02 08:46:43;;;;;;;;;;;;;;;0.35;99.89;96828.55;110065;1244;68686;-72
2023/02/02 08:49:12;;;;;;;;;;;;;;;0.30;100.00;96831.87;110137;1244;59679;-72
2023/02/02 08:51:41;;;;;;;;;;;;;;;0.27;100.00;96839.33;110081;1244;59689;-72
2023/02/02 08:54:09;;;;;;;;;;;;;;;0.28;100.00;96843.80;110132;1244;70537;-72
2023/02/02 08:56:38;;;;;;;;;;;;;;;0.29;100.00;96841.00;110130;1244;69026;-72
2023/02/02 08:59:07;;;;;;;;;;;;;;;0.33;100.00;96847.50;110065;1244;68493;-72
2023/02/02 09:01:36;;;;;;;;;;;;;;;0.35;100.00;96848.64;110107;1243;59751;-72
2023/02/02 09:04:06;;;;;;;;;;;;;;;0.38;100.00;96846.42;110130;1244;59713;-72
2023/02/02 09:06:36;;;;;;;;;;;;;;;0.44;100.00;96846.52;110163;1244;71361;-72
2023/02/02 09:09:06;;;;;;;;;;;;;;;0.54;100.00;96842.02;110122;1243;68749;-72
2023/02/02 09:11:35;;;;;;;;;;;;;;;0.62;100.00;96848.90;110103;1245;69843;-72
2023/02/02 09:14:05;;;;;;;;;;;;;;;0.69;100.00;96850.46;110137;1244;59750;-72
2023/02/02 09:16:34;;;;;;;;;;;;;;;0.72;99.59;96842.61;110166;1244;59738;-72
2023/02/02 09:19:04;;;;;;;;;;;;;;;0.76;99.85;96846.55;110109;1244;71257;-72
2023/02/02 09:21:35;;;;;;;;;;;;;;;0.77;99.66;96846.53;110041;1244;68495;-73
2023/02/02 09:24:06;;;;;;;;;;;;;;;0.77;99.68;96841.71;110108;1245;69073;-72
2023/02/02 09:26:35;;;;;;;;;;;;;;;0.80;99.79;96837.98;110099;1244;59709;-72
2023/02/02 09:29:04;;;;;;;;;;;;;;;0.73;100.00;96837.08;110121;1244;59679;-72
2023/02/02 09:31:34;;;;;;;;;;;;;;;0.80;100.00;96833.36;110087;1242;71531;-72
2023/02/02 09:34:05;;;;;;;;;;;;;;;0.83;100.00;96838.91;110121;1242;68525;-72
2023/02/02 09:36:34;;;;;;;;;;;;;;;0.83;100.00;96839.05;110135;1245;69207;-72
2023/02/02 09:39:02;;;;;;;;;;;;;;;0.86;100.00;96830.70;110094;1243;59668;-72
2023/02/02 09:41:45;;;;;;;;;;;;;;;0.90;100.00;96832.60;110088;1244;59722;-72
2023/02/02 09:44:33;;;;;;;;;;;;;;;0.88;100.00;96833.68;110099;1244;71239;-72
2023/02/02 09:47:17;;;;;;;;;;;;;;;0.75;100.00;96839.24;110099;1244;69836;-72
2023/02/02 09:49:51;;;;;;;;;;;;;;;0.71;100.00;96834.94;110088;1244;68777;-72
2023/02/02 09:52:41;;;;;;;;;;;;;;;0.79;100.00;96833.20;110082;1244;59764;-72
2023/02/02 09:55:21;;;;;;;;;;;;;;;0.77;100.00;96831.58;110093;1244;59728;-72
2023/02/02 09:57:53;;;;;;;;;;;;;;;0.72;100.00;96833.36;110064;1244;71947;-72
2023/02/02 10:00:28;;;;;;;;;;;;;;;0.77;100.00;96831.77;110089;1244;69964;-73
2023/02/02 10:03:03;;;;;;;;;;;;;;;0.76;100.00;96827.34;110223;1243;69090;-70
2023/02/02 10:05:54;;;;;;;;;;;;;;;0.81;100.00;96829.38;110149;1244;59744;-71
2023/02/02 10:08:31;;;;;;;;;;;;;;;0.73;100.00;96830.73;110143;1244;59682;-70
2023/02/02 10:11:21;;;;;;;;;;;;;;;0.73;100.00;96832.27;110146;1245;71396;-71
2023/02/02 10:13:51;;;;;;;;;;;;;;;0.76;100.00;96830.10;110172;1244;69233;-71
2023/02/02 10:16:22;;;;;;;;;;;;;;;0.71;100.00;96831.52;110088;1244;69297;-71
2023/02/02 10:19:00;;;;;;;;;;;;;;;0.74;100.00;96836.02;110131;1244;59709;-70
2023/02/02 10:21:39;;;;;;;;;;;;;;;0.80;100.00;96835.05;110163;1244;59735;-70
2023/02/02 10:24:37;;;;;;;;;;;;;;;0.82;100.00;96834.10;110133;1244;71394;-71
2023/02/02 10:27:28;;;;;;;;;;;;;;;0.91;100.00;96831.52;110031;1245;69813;-71
2023/02/02 10:29:58;;;;;;;;;;;;;;;0.87;99.99;96831.86;110090;1245;69624;-71
2023/02/02 10:32:35;;;;;;;;;;;;;;;0.91;99.47;96833.88;110082;1241;59732;-70
2023/02/02 10:35:17;;;;;;;;;;;;;;;1.02;99.23;96833.09;110132;1244;59692;-71
2023/02/02 10:37:52;;;;;;;;;;;;;;;1.07;98.73;96828.91;110102;1243;71972;-70
2023/02/02 10:40:27;;;;;;;;;;;;;;;1.09;99.02;96828.85;110144;1245;69159;-70
2023/02/02 10:46:03;;;;;;;;;;;;;;;1.25;97.70;96820.23;110154;1244;59812;-71
2023/02/02 10:48:34;;;;;;;;;;;;;;;1.25;96.83;96822.10;110160;1244;59666;-71
2023/02/02 10:51:11;;;;;;;;;;;;;;;1.29;96.97;96821.92;110165;1244;70099;-71
2023/02/02 10:53:42;;;;;;;;;;;;;;;1.36;96.77;96821.62;110111;1244;68381;-71
2023/02/02 10:56:12;;;;;;;;;;;;;;;1.36;96.61;96824.71;110081;1242;68345;-70
2023/02/02 10:59:00;;;;;;;;;;;;;;;1.45;96.75;96825.84;110125;1245;59692;-71
2023/02/02 11:01:28;;;;;;;;;;;;;;;1.60;96.56;96830.64;110116;1244;59712;-71
2023/02/02 11:06:51;;;;;;;;;;;;;;;1.51;95.60;96826.06;110090;1244;68779;-71
2023/02/02 11:09:29;;;;;;;;;;;;;;;1.47;95.77;96826.75;110092;1242;68369;-71
2023/02/02 11:12:24;;;;;;;;;;;;;;;1.27;97.09;96822.18;110068;1244;59847;-71
2023/02/02 11:14:53;;;;;;;;;;;;;;;1.23;97.45;96822.89;110096;1244;59719;-72
2023/02/02 11:17:22;;;;;;;;;;;;;;;1.10;98.35;96824.67;110187;1243;71254;-72
2023/02/02 11:19:54;;;;;;;;;;;;;;;1.09;98.69;96824.20;110202;1245;69044;-71
2023/02/02 11:22:32;;;;;;;;;;;;;;;1.07;98.32;96821.38;110240;1244;69158;-71
2023/02/02 11:25:04;;;;;;;;;;;;;;;0.99;99.58;96818.29;110171;1244;59744;-71
2023/02/02 11:27:37;;;;;;;;;;;;;;;0.99;99.52;96818.96;110166;1243;59751;-72
2023/02/02 11:30:12;;;;;;;;;;;;;;;1.05;99.24;96815.61;110167;1244;71956;-71
2023/02/02 11:32:40;;;;;;;;;;;;;;;1.09;99.29;96810.63;110117;1245;69364;-71
2023/02/02 11:35:14;;;;;;;;;;;;;;;1.13;99.58;96808.92;110112;1243;68378;-72
2023/02/02 11:37:56;;;;;;;;;;;;;;;1.16;99.19;96808.45;110093;1244;59686;-71
2023/02/02 11:40:26;;;;;;;;;;;;;;;1.11;98.97;96809.33;110095;1241;59703;-71
2023/02/02 11:42:57;;;;;;;;;;;;;;;1.18;98.83;96811.45;110154;1244;71351;-72
2023/02/02 11:45:36;;;;;;;;;;;;;;;1.13;99.31;96811.33;110152;1244;69212;-71
2023/02/02 11:48:21;;;;;;;;;;;;;;;1.01;99.92;96806.54;110100;1243;69286;-71
2023/02/02 11:50:51;;;;;;;;;;;;;;;0.97;100.00;96808.40;110142;1244;59692;-71
2023/02/02 11:53:31;;;;;;;;;;;;;;;0.88;100.00;96813.09;110101;1244;59717;-71
2023/02/02 11:56:10;;;;;;;;;;;;;;;0.70;100.00;96819.73;110106;1244;70657;-71
2023/02/02 11:58:49;;;;;;;;;;;;;;;0.63;100.00;96822.23;110148;1244;68400;-71
2023/02/02 12:01:25;;;;;;;;;;;;;;;0.59;100.00;96820.19;110101;1243;68906;-71
2023/02/02 12:03:55;;;;;;;;;;;;;;;0.51;100.00;96824.84;110105;1247;60134;-71
2023/02/02 12:06:25;;;;;;;;;;;;;;;0.30;100.00;96831.34;110092;1242;59700;-71
2023/02/02 12:09:00;;;;;;;;;;;;;;;0.24;100.00;96840.14;110132;1243;70432;-71
2023/02/02 12:11:38;;;;;;;;;;;;;;;0.26;100.00;96840.06;110123;1244;69277;-71
2023/02/02 12:14:25;;;;;;;;;;;;;;;0.06;100.00;96840.91;110039;1243;69108;-71
2023/02/02 12:17:12;;;;;;;;;;;;;;;0.11;100.00;96848.58;110115;1244;59719;-71
2023/02/02 12:19:55;;;;;;;;;;;;;;;0.10;100.00;96849.47;110116;1244;59798;-71
2023/02/02 12:22:33;;;;;;;;;;;;;;;0.11;100.00;96852.01;110118;1244;70345;-71
2023/02/02 12:25:14;;;;;;;;;;;;;;;0.19;100.00;96857.33;110160;1244;69062;-71
2023/02/02 12:28:08;;;;;;;;;;;;;;;0.23;100.00;96859.89;110093;1244;69280;-72
2023/02/02 12:30:41;;;;;;;;;;;;;;;0.21;100.00;96856.20;110081;1245;59742;-70
2023/02/02 12:33:16;;;;;;;;;;;;;;;0.23;100.00;96858.02;110097;1244;59694;-70
2023/02/02 12:35:44;;;;;;;;;;;;;;;0.24;100.00;96860.19;110096;1242;70894;-70
2023/02/02 12:38:25;;;;;;;;;;;;;;;0.32;100.00;96862.77;110137;1244;69829;-70
2023/02/02 12:41:26;;;;;;;;;;;;;;;0.35;100.00;96861.11;110097;1245;67397;-70
2023/02/02 12:43:59;;;;;;;;;;;;;;;0.46;100.00;96857.27;109752;1245;59753;-71
2023/02/02 12:46:27;;;;;;;;;;;;;;;0.55;100.00;96862.55;110043;1244;59676;-70
2023/02/02 12:49:21;;;;;;;;;;;;;;;0.69;100.00;96862.80;110150;1245;71420;-71
2023/02/02 12:52:02;;;;;;;;;;;;;;;0.81;100.00;96866.42;110156;1242;69115;-71
2023/02/02 12:54:41;;;;;;;;;;;;;;;1.03;100.00;96869.59;110117;1245;69701;-70
2023/02/02 12:57:21;;;;;;;;;;;;;;;0.98;100.00;96876.13;110056;1244;59747;-71
2023/02/02 13:00:08;;;;;;;;;;;;;;;0.92;100.00;96878.14;110114;1245;59679;-69
2023/02/02 13:02:52;;;;;;;;;;;;;;;0.83;100.00;96882.79;110114;1242;70992;-70
2023/02/02 13:05:33;;;;;;;;;;;;;;;0.78;100.00;96881.80;110131;1242;69283;-71
2023/02/02 13:08:06;;;;;;;;;;;;;;;0.75;100.00;96882.63;110066;1244;69677;-71
2023/02/02 13:10:46;;;;;;;;;;;;;;;0.68;100.00;96887.38;110075;1245;59750;-71
2023/02/02 13:13:16;;;;;;;;;;;;;;;0.74;100.00;96890.05;110087;1243;59734;-71
2023/02/02 13:15:47;;;;;;;;;;;;;;;0.76;100.00;96890.64;110114;1243;71214;-71
2023/02/02 13:18:27;;;;;;;;;;;;;;;0.85;100.00;96892.85;110111;1244;69848;-71